createdAt,value
2018-09-09T00:01:13.979Z,96654.98
2018-09-09T00:03:42.789Z,96653.84
2018-09-09T00:06:11.478Z,96653.97
2018-09-09T00:08:40.571Z,96653.77
2018-09-09T00:11:10.187Z,96653.97
2018-09-09T00:13:38.967Z,96649.00
2018-09-09T00:16:07.830Z,96649.33
2018-09-09T00:18:36.691Z,96656.26
2018-09-09T00:21:05.899Z,96657.60
2018-09-09T00:23:35.136Z,96651.71
2018-09-09T00:26:03.870Z,96644.78
2018-09-09T00:28:32.567Z,96650.13
2018-09-09T00:31:01.237Z,96647.31
2018-09-09T00:33:29.851Z,96651.07
2018-09-09T00:35:59.636Z,96649.09
2018-09-09T00:38:28.466Z,96651.69
2018-09-09T00:40:57.186Z,96649.25
2018-09-09T00:43:25.735Z,96645.11
2018-09-09T00:45:54.967Z,96648.31
2018-09-09T00:48:23.655Z,96652.98
2018-09-09T00:50:58.886Z,96650.27
2018-09-09T00:53:32.783Z,96644.73
2018-09-09T00:56:02.127Z,96639.99
2018-09-09T00:58:30.685Z,96646.30
2018-09-09T01:01:04.403Z,96644.19
2018-09-09T01:03:33.586Z,96644.13
2018-09-09T01:06:02.244Z,96645.02
2018-09-09T01:08:31.156Z,96649.76
2018-09-09T01:10:59.916Z,96646.95
2018-09-09T01:13:28.768Z,96654.08
2018-09-09T01:15:57.395Z,96652.41
2018-09-09T01:18:26.576Z,96654.27
2018-09-09T01:20:55.200Z,96652.31
2018-09-09T01:23:23.875Z,96659.59
2018-09-09T01:25:53.610Z,96647.69
2018-09-09T01:28:22.276Z,96647.69
2018-09-09T01:30:50.988Z,96645.17
2018-09-09T01:33:19.632Z,96637.44
2018-09-09T01:35:48.920Z,96638.13
2018-09-09T01:38:17.624Z,96634.00
2018-09-09T01:40:46.737Z,96636.58
2018-09-09T01:43:16.612Z,96632.84
2018-09-09T01:45:45.416Z,96632.08
2018-09-09T01:48:13.980Z,96631.75
2018-09-09T01:50:42.675Z,96630.59
2018-09-09T01:53:11.906Z,96630.47
2018-09-09T01:55:40.464Z,96631.82
2018-09-09T01:58:09.155Z,96627.85
2018-09-09T02:00:37.856Z,96629.28
2018-09-09T02:03:07.037Z,96630.95
2018-09-09T02:05:35.838Z,96632.71
2018-09-09T02:08:04.955Z,96630.70
2018-09-09T02:10:33.599Z,96633.05
2018-09-09T02:13:02.440Z,96629.57
2018-09-09T02:15:31.316Z,96636.87
2018-09-09T02:18:00.054Z,96630.19
2018-09-09T02:20:29.160Z,96638.88
2018-09-09T02:22:57.876Z,96639.70
2018-09-09T02:25:26.594Z,96643.64
2018-09-09T02:27:55.195Z,96645.99
2018-09-09T02:30:24.956Z,96650.19
2018-09-09T02:32:53.819Z,96649.36
2018-09-09T02:35:22.548Z,96648.05
2018-09-09T02:37:51.364Z,96649.07
2018-09-09T02:40:19.937Z,96638.56
2018-09-09T02:42:48.604Z,96649.33
2018-09-09T02:45:17.196Z,96644.57
2018-09-09T02:47:45.808Z,96643.05
2018-09-09T02:50:14.370Z,96642.23
2018-09-09T02:52:43.064Z,96639.78
2018-09-09T02:55:12.123Z,96641.43
2018-09-09T02:57:40.839Z,96648.03
2018-09-09T03:00:09.463Z,96643.70
2018-09-09T03:02:38.356Z,96648.50
2018-09-09T03:05:07.091Z,96653.63
2018-09-09T03:07:35.638Z,96660.77
2018-09-09T03:10:04.276Z,96662.52
2018-09-09T03:12:32.856Z,96660.06
2018-09-09T03:15:01.639Z,96660.53
2018-09-09T03:17:30.300Z,96664.76
2018-09-09T03:19:59.143Z,96663.67
2018-09-09T03:22:28.312Z,96663.54
2018-09-09T03:24:57.517Z,96666.51
2018-09-09T03:27:26.299Z,96667.80
2018-09-09T03:29:55.098Z,96670.70
2018-09-09T03:32:23.887Z,96671.43
2018-09-09T03:34:52.553Z,96667.56
2018-09-09T03:37:21.135Z,96668.78
2018-09-09T03:39:50.324Z,96665.27
2018-09-09T03:42:19.004Z,96662.36
2018-09-09T03:44:47.747Z,96662.10
2018-09-09T03:47:16.580Z,96661.27
2018-09-09T03:49:46.091Z,96656.95
2018-09-09T03:52:15.444Z,96656.17
2018-09-09T03:54:44.064Z,96661.45
2018-09-09T03:57:12.960Z,96655.05
2018-09-09T03:59:41.623Z,96652.98
2018-09-09T04:02:11.159Z,96656.02
2018-09-09T04:04:39.682Z,96655.01
2018-09-09T04:07:08.925Z,96654.90
2018-09-09T04:09:37.793Z,96656.66
2018-09-09T04:12:06.608Z,96656.17
2018-09-09T04:14:36.305Z,96657.59
2018-09-09T04:17:05.528Z,96657.95
2018-09-09T04:19:34.120Z,96652.30
2018-09-09T04:22:02.883Z,96656.53
2018-09-09T04:24:31.740Z,96654.97
2018-09-09T04:27:00.428Z,96653.69
2018-09-09T04:29:29.163Z,96658.34
2018-09-09T04:31:58.586Z,96656.28
2018-09-09T04:34:27.107Z,96658.17
2018-09-09T04:36:55.678Z,96659.64
2018-09-09T04:39:24.036Z,96656.12
2018-09-09T04:41:53.491Z,96661.59
2018-09-09T04:44:22.269Z,96668.58
2018-09-09T04:46:51.103Z,96664.92
2018-09-09T04:49:19.850Z,96670.91
2018-09-09T04:51:48.623Z,96665.75
2018-09-09T04:54:17.810Z,96665.50
2018-09-09T04:56:46.466Z,96669.86
2018-09-09T04:59:15.105Z,96671.60
2018-09-09T05:01:43.691Z,96668.58
2018-09-09T05:04:12.581Z,96678.06
2018-09-09T05:06:41.296Z,96677.28
2018-09-09T05:09:10.360Z,96677.28
2018-09-09T05:11:39.061Z,96681.48
2018-09-09T05:14:07.928Z,96681.14
2018-09-09T05:16:36.854Z,96683.59
2018-09-09T05:19:05.776Z,96683.80
2018-09-09T05:21:34.324Z,96682.02
2018-09-09T05:24:03.056Z,96683.94
2018-09-09T05:26:31.860Z,96684.59
2018-09-09T05:29:01.450Z,96680.60
2018-09-09T05:31:30.253Z,96678.39
2018-09-09T05:33:59.051Z,96682.25
2018-09-09T05:36:27.859Z,96678.26
2018-09-09T05:38:56.645Z,96683.59
2018-09-09T05:41:25.484Z,96683.80
2018-09-09T05:43:55.003Z,96684.31
2018-09-09T05:46:23.812Z,96684.58
2018-09-09T05:48:52.580Z,96679.49
2018-09-09T05:51:21.148Z,96684.55
2018-09-09T05:53:50.210Z,96682.95
2018-09-09T05:56:18.812Z,96686.39
2018-09-09T05:58:47.488Z,96688.11
2018-09-09T06:01:16.090Z,96687.45
2018-09-09T06:03:44.855Z,96685.52
2018-09-09T06:06:13.397Z,96681.34
2018-09-09T06:08:42.207Z,96684.24
2018-09-09T06:11:11.474Z,96685.81
2018-09-09T06:13:40.393Z,96686.55
2018-09-09T06:16:09.337Z,96687.80
2018-09-09T06:18:38.001Z,96683.59
2018-09-09T06:21:06.954Z,96686.32
2018-09-09T06:23:35.483Z,96680.08
2018-09-09T06:26:04.009Z,96680.90
2018-09-09T06:28:32.815Z,96681.33
2018-09-09T06:31:01.412Z,96684.30
2018-09-09T06:33:30.104Z,96683.20
2018-09-09T06:35:58.656Z,96687.41
2018-09-09T06:38:27.271Z,96689.29
2018-09-09T06:40:55.943Z,96680.84
2018-09-09T06:43:24.641Z,96680.25
2018-09-09T06:46:08.367Z,96681.85
2018-09-09T06:48:38.179Z,96681.04
2018-09-09T06:51:07.051Z,96681.19
2018-09-09T06:53:36.596Z,96688.95
2018-09-09T06:56:05.276Z,96690.95
2018-09-09T06:58:34.843Z,96689.92
2018-09-09T07:01:04.245Z,96695.85
2018-09-09T07:03:32.951Z,96698.08
2018-09-09T07:06:02.332Z,96703.04
2018-09-09T07:08:30.988Z,96709.70
2018-09-09T07:11:00.067Z,96712.62
2018-09-09T07:13:28.491Z,96713.03
2018-09-09T07:15:57.219Z,96709.05
2018-09-09T07:21:28.860Z,96720.88
2018-09-09T07:23:57.463Z,96724.73
2018-09-09T07:26:26.708Z,96719.62
2018-09-09T07:28:55.376Z,96726.36
2018-09-09T07:31:24.039Z,96728.27
2018-09-09T07:33:55.688Z,96723.78
2018-09-09T07:36:24.942Z,96717.50
2018-09-09T07:38:53.571Z,96710.58
2018-09-09T07:41:22.259Z,96713.84
2018-09-09T07:43:50.945Z,96714.34
2018-09-09T07:46:19.911Z,96717.44
2018-09-09T07:48:48.407Z,96718.95
2018-09-09T07:51:16.999Z,96717.67
2018-09-09T07:53:45.556Z,96722.20
2018-09-09T07:56:14.144Z,96727.30
2018-09-09T07:58:43.936Z,96727.81
2018-09-09T08:01:12.570Z,96729.98
2018-09-09T08:03:41.216Z,96727.55
2018-09-09T08:06:10.781Z,96733.23
2018-09-09T08:08:46.180Z,96726.41
2018-09-09T08:11:14.864Z,96729.05
2018-09-09T08:13:44.095Z,96734.23
2018-09-09T08:16:13.081Z,96723.98
2018-09-09T08:18:42.297Z,96722.64
2018-09-09T08:21:11.309Z,96728.34
2018-09-09T08:23:39.935Z,96719.97
2018-09-09T08:26:08.523Z,96720.75
2018-09-09T08:28:37.500Z,96712.09
2018-09-09T08:31:06.179Z,96710.92
2018-09-09T08:33:35.093Z,96714.84
2018-09-09T08:36:04.372Z,96710.55
2018-09-09T08:38:33.036Z,96709.33
2018-09-09T08:41:01.703Z,96700.98
2018-09-09T08:43:30.467Z,96698.45
2018-09-09T08:45:59.129Z,96698.83
2018-09-09T08:48:27.882Z,96692.63
2018-09-09T08:50:56.635Z,96701.58
2018-09-09T08:53:25.180Z,96704.84
2018-09-09T08:55:54.696Z,96704.16
2018-09-09T08:58:23.819Z,96699.83
2018-09-09T09:00:52.647Z,96701.82
2018-09-09T09:03:21.780Z,96693.31
2018-09-09T09:05:50.665Z,96693.17
2018-09-09T09:08:19.534Z,96689.95
2018-09-09T09:10:48.194Z,96686.41
2018-09-09T09:13:16.896Z,96687.05
2018-09-09T09:15:45.457Z,96684.86
2018-09-09T09:18:14.072Z,96683.41
2018-09-09T09:20:42.875Z,96685.98
2018-09-09T09:23:12.976Z,96674.83
2018-09-09T09:25:47.576Z,96678.26
2018-09-09T09:28:16.769Z,96687.85
2018-09-09T09:30:45.511Z,96685.44
2018-09-09T09:33:22.731Z,96680.81
2018-09-09T09:36:02.511Z,96681.89
2018-09-09T09:38:40.557Z,96672.61
2018-09-09T09:41:18.691Z,96668.63
2018-09-09T09:44:00.289Z,96673.98
2018-09-09T09:46:37.851Z,96666.52
2018-09-09T09:49:16.366Z,96675.16
2018-09-09T09:51:54.887Z,96675.30
2018-09-09T09:54:24.022Z,96676.78
2018-09-09T09:57:01.583Z,96672.60
2018-09-09T09:59:42.055Z,96666.04
2018-09-09T10:02:22.222Z,96666.14
2018-09-09T10:04:52.026Z,96664.67
2018-09-09T10:07:20.760Z,96669.45
2018-09-09T10:09:49.384Z,96665.08
2018-09-09T10:12:18.211Z,96664.28
2018-09-09T10:14:46.751Z,96665.08
2018-09-09T10:17:15.625Z,96668.81
2018-09-09T10:19:44.350Z,96664.75
2018-09-09T10:22:13.214Z,96665.72
2018-09-09T10:24:41.908Z,96672.64
2018-09-09T10:27:10.805Z,96673.84
2018-09-09T10:29:39.513Z,96662.97
2018-09-09T10:32:08.172Z,96674.69
2018-09-09T10:34:37.227Z,96672.00
2018-09-09T10:37:06.540Z,96667.69
2018-09-09T10:39:35.240Z,96663.08
2018-09-09T10:42:04.170Z,96665.08
2018-09-09T10:44:32.823Z,96669.96
2018-09-09T10:47:01.411Z,96664.52
2018-09-09T10:49:29.983Z,96661.84
2018-09-09T10:51:58.673Z,96668.30
2018-09-09T10:54:27.560Z,96668.92
2018-09-09T10:56:56.272Z,96664.16
2018-09-09T10:59:24.911Z,96652.44
2018-09-09T11:01:53.630Z,96653.05
2018-09-09T11:04:22.565Z,96649.70
2018-09-09T11:06:51.393Z,96657.11
2018-09-09T11:09:19.956Z,96651.34
2018-09-09T11:11:48.531Z,96657.43
2018-09-09T11:14:17.244Z,96653.08
2018-09-09T11:16:45.917Z,96657.09
2018-09-09T11:19:14.751Z,96660.65
2018-09-09T11:21:43.508Z,96654.59
2018-09-09T11:24:12.185Z,96655.41
2018-09-09T11:26:41.038Z,96643.65
2018-09-09T11:29:09.879Z,96645.72
2018-09-09T11:31:39.255Z,96652.44
2018-09-09T11:34:08.435Z,96643.98
2018-09-09T11:36:37.243Z,96648.84
2018-09-09T11:39:07.968Z,96648.06
2018-09-09T11:41:36.919Z,96649.92
2018-09-09T11:44:05.864Z,96645.17
2018-09-09T11:46:35.309Z,96645.26
2018-09-09T11:49:04.140Z,96649.50
2018-09-09T11:51:33.287Z,96649.25
2018-09-09T11:54:01.933Z,96648.46
2018-09-09T11:56:30.724Z,96657.64
2018-09-09T11:58:59.548Z,96643.65
2018-09-09T12:01:29.521Z,96644.88
2018-09-09T12:03:58.116Z,96639.32
2018-09-09T12:06:26.888Z,96636.05
2018-09-09T12:08:55.685Z,96638.22
2018-09-09T12:11:24.364Z,96637.33
2018-09-09T12:13:53.888Z,96641.84
2018-09-09T12:16:23.689Z,96651.31
2018-09-09T12:18:52.457Z,96643.42
2018-09-09T12:21:21.125Z,96645.30
2018-09-09T12:23:49.808Z,96637.91
2018-09-09T12:26:18.370Z,96642.17
2018-09-09T12:28:46.980Z,96629.10
2018-09-09T12:31:15.681Z,96634.82
2018-09-09T12:33:44.499Z,96630.63
2018-09-09T12:36:13.111Z,96633.69
2018-09-09T12:38:41.707Z,96628.93
2018-09-09T12:41:10.412Z,96628.79
2018-09-09T12:43:44.108Z,96631.74
2018-09-09T12:46:17.758Z,96628.06
2018-09-09T12:48:51.444Z,96622.80
2018-09-09T12:51:29.757Z,96619.27
2018-09-09T12:54:07.786Z,96618.67
2018-09-09T12:56:36.797Z,96616.15
2018-09-09T12:59:05.407Z,96610.67
2018-09-09T13:01:34.395Z,96613.38
2018-09-09T13:04:02.968Z,96612.89
2018-09-09T13:06:31.770Z,96605.20
2018-09-09T13:09:00.355Z,96597.53
2018-09-09T13:11:28.885Z,96597.36
2018-09-09T13:13:57.670Z,96602.43
2018-09-09T13:16:26.463Z,96600.27
2018-09-09T13:18:55.080Z,96597.32
2018-09-09T13:21:23.748Z,96602.66
2018-09-09T13:23:52.304Z,96597.23
2018-09-09T13:26:21.095Z,96599.30
2018-09-09T13:28:49.829Z,96596.88
2018-09-09T13:31:18.515Z,96593.20
2018-09-09T13:33:48.668Z,96589.36
2018-09-09T13:36:17.304Z,96589.63
2018-09-09T13:38:46.004Z,96585.63
2018-09-09T13:41:14.686Z,96589.64
2018-09-09T13:43:43.421Z,96595.22
2018-09-09T13:46:12.060Z,96594.27
2018-09-09T13:48:40.940Z,96592.69
2018-09-09T13:51:10.279Z,96593.60
2018-09-09T13:53:38.977Z,96589.66
2018-09-09T13:56:08.243Z,96591.58
2018-09-09T13:58:36.929Z,96591.01
2018-09-09T14:01:05.569Z,96588.17
2018-09-09T14:03:34.144Z,96585.38
2018-09-09T14:06:03.563Z,96595.45
2018-09-09T14:08:32.461Z,96591.63
2018-09-09T14:11:01.139Z,96590.19
2018-09-09T14:13:29.738Z,96594.09
2018-09-09T14:15:58.958Z,96603.02
2018-09-09T14:18:27.619Z,96596.43
2018-09-09T14:20:56.312Z,96599.34
2018-09-09T14:23:24.970Z,96599.41
2018-09-09T14:25:53.679Z,96592.94
2018-09-09T14:28:22.353Z,96591.97
2018-09-09T14:30:50.949Z,96591.71
2018-09-09T14:33:20.249Z,96592.30
2018-09-09T14:35:48.791Z,96592.16
2018-09-09T14:38:17.718Z,96593.62
2018-09-09T14:40:46.292Z,96596.41
2018-09-09T14:43:15.068Z,96587.53
2018-09-09T14:45:46.031Z,96587.35
2018-09-09T14:48:14.700Z,96600.09
2018-09-09T14:50:43.523Z,96599.48
2018-09-09T14:53:12.554Z,96603.20
2018-09-09T14:55:41.371Z,96599.91
2018-09-09T14:58:10.093Z,96604.83
2018-09-09T15:00:38.841Z,96601.38
2018-09-09T15:03:07.947Z,96599.70
2018-09-09T15:05:36.796Z,96610.67
2018-09-09T15:08:05.623Z,96601.40
2018-09-09T15:10:34.269Z,96602.31
2018-09-09T15:13:03.401Z,96606.05
2018-09-09T15:15:32.229Z,96605.16
2018-09-09T15:18:01.371Z,96604.94
2018-09-09T15:20:30.152Z,96600.15
2018-09-09T15:22:58.951Z,96604.94
2018-09-09T15:25:27.628Z,96608.86
2018-09-09T15:27:57.036Z,96609.44
2018-09-09T15:30:25.768Z,96604.67
2018-09-09T15:32:54.533Z,96607.25
2018-09-09T15:35:24.471Z,96599.15
2018-09-09T15:37:53.090Z,96604.41
2018-09-09T15:40:21.804Z,96602.89
2018-09-09T15:42:50.518Z,96606.98
2018-09-09T15:45:19.208Z,96603.78
2018-09-09T15:47:48.974Z,96599.16
2018-09-09T15:50:19.198Z,96602.49
2018-09-09T15:52:47.800Z,96610.28
2018-09-09T15:55:16.813Z,96604.34
2018-09-09T15:57:46.011Z,96606.66
2018-09-09T16:00:14.903Z,96606.65
2018-09-09T16:02:43.912Z,96604.89
2018-09-09T16:05:13.737Z,96600.70
2018-09-09T16:07:42.420Z,96598.86
2018-09-09T16:10:11.242Z,96605.75
2018-09-09T16:12:40.130Z,96613.09
2018-09-09T16:15:09.702Z,96610.40
2018-09-09T16:21:03.486Z,96608.33
2018-09-09T16:23:32.475Z,96599.50
2018-09-09T16:26:01.184Z,96605.21
2018-09-09T16:28:31.106Z,96601.23
2018-09-09T16:30:59.750Z,96608.36
2018-09-09T16:33:28.924Z,96613.19
2018-09-09T16:35:57.815Z,96607.25
2018-09-09T16:38:26.371Z,96601.59
2018-09-09T16:40:55.953Z,96610.81
2018-09-09T16:43:24.494Z,96611.89
2018-09-09T16:45:53.132Z,96610.30
2018-09-09T16:48:22.078Z,96618.20
2018-09-09T16:50:51.664Z,96617.81
2018-09-09T16:53:20.721Z,96607.47
2018-09-09T16:55:49.320Z,96605.19
2018-09-09T16:58:18.395Z,96609.05
2018-09-09T17:00:47.518Z,96608.06
2018-09-09T17:03:16.431Z,96610.50
2018-09-09T17:05:45.082Z,96605.66
2018-09-09T17:08:13.744Z,96607.16
2018-09-09T17:10:42.375Z,96613.27
2018-09-09T17:13:11.293Z,96606.61
2018-09-09T17:15:40.024Z,96604.19
2018-09-09T17:18:09.436Z,96604.80
2018-09-09T17:20:38.416Z,96604.88
2018-09-09T17:23:07.505Z,96600.74
2018-09-09T17:25:36.933Z,96593.64
2018-09-09T17:28:05.753Z,96604.14
2018-09-09T17:30:34.592Z,96605.88
2018-09-09T17:33:03.367Z,96614.15
2018-09-09T17:35:32.162Z,96619.06
2018-09-09T17:38:00.836Z,96625.37
2018-09-09T17:40:29.392Z,96625.48
2018-09-09T17:42:57.980Z,96624.06
2018-09-09T17:45:27.003Z,96626.69
2018-09-09T17:47:55.756Z,96627.35
2018-09-09T17:50:24.565Z,96630.47
2018-09-09T17:52:53.356Z,96636.30
2018-09-09T17:55:22.197Z,96637.00
2018-09-09T17:57:51.044Z,96642.69
2018-09-09T18:00:19.945Z,96653.33
2018-09-09T18:02:49.990Z,96656.27
2018-09-09T18:05:18.823Z,96660.66
2018-09-09T18:07:47.676Z,96665.39
2018-09-09T18:10:16.585Z,96667.65
2018-09-09T18:12:45.277Z,96665.05
2018-09-09T18:15:14.417Z,96667.31
2018-09-09T18:17:43.063Z,96666.84
2018-09-09T18:20:12.609Z,96668.73
2018-09-09T18:22:41.991Z,96666.05
2018-09-09T18:25:10.576Z,96671.76
2018-09-09T18:27:39.603Z,96671.45
2018-09-09T18:30:08.755Z,96677.66
2018-09-09T18:38:19.042Z,96684.92
2018-09-09T18:40:47.782Z,96687.19
2018-09-09T18:43:16.739Z,96694.18
2018-09-09T18:45:45.392Z,96686.82
2018-09-09T18:48:14.079Z,96684.04
2018-09-09T18:50:42.775Z,96690.59
2018-09-09T18:53:11.913Z,96685.71
2018-09-09T18:55:40.494Z,96689.03
2018-09-09T18:58:09.212Z,96696.02
2018-09-09T19:00:38.097Z,96693.55
2018-09-09T19:03:06.829Z,96694.66
2018-09-09T19:05:36.104Z,96702.60
2018-09-09T19:08:04.998Z,96694.80
2018-09-09T19:10:33.772Z,96702.13
2018-09-09T19:13:02.336Z,96700.50
2018-09-09T19:15:31.044Z,96705.23
2018-09-09T19:17:59.719Z,96698.73
2018-09-09T19:20:28.452Z,96697.11
2018-09-09T19:22:57.245Z,96702.48
2018-09-09T19:25:25.915Z,96697.91
2018-09-09T19:27:54.651Z,96697.42
2018-09-09T19:30:23.937Z,96704.42
2018-09-09T19:32:53.449Z,96696.64
2018-09-09T19:35:23.744Z,96694.33
2018-09-09T19:37:52.458Z,96697.11
2018-09-09T19:40:21.175Z,96696.93
2018-09-09T19:42:49.819Z,96698.05
2018-09-09T19:45:18.365Z,96698.20
2018-09-09T19:47:46.993Z,96696.88
2018-09-09T19:50:15.688Z,96693.27
2018-09-09T19:52:45.001Z,96698.48
2018-09-09T19:55:14.249Z,96701.83
2018-09-09T19:57:43.116Z,96701.30
2018-09-09T20:00:11.843Z,96699.68
2018-09-09T20:02:41.439Z,96693.34
2018-09-09T20:05:10.743Z,96687.62
2018-09-09T20:07:39.347Z,96704.80
2018-09-09T20:10:07.882Z,96699.13
2018-09-09T20:12:36.600Z,96701.25
2018-09-09T20:15:06.268Z,96712.47
2018-09-09T20:17:35.298Z,96713.26
2018-09-09T20:20:04.153Z,96709.70
2018-09-09T20:22:33.617Z,96719.09
2018-09-09T20:25:02.454Z,96720.04
2018-09-09T20:27:31.032Z,96719.19
2018-09-09T20:29:59.777Z,96716.39
2018-09-09T20:32:28.659Z,96714.71
2018-09-09T20:34:57.756Z,96718.60
2018-09-09T20:37:26.835Z,96720.22
2018-09-09T20:39:55.695Z,96722.66
2018-09-09T20:42:24.407Z,96711.56
2018-09-09T20:44:53.243Z,96719.87
2018-09-09T20:47:22.152Z,96719.55
2018-09-09T20:49:50.885Z,96719.23
2018-09-09T20:52:19.963Z,96719.52
2018-09-09T20:54:48.718Z,96717.55
2018-09-09T20:57:17.624Z,96719.94
2018-09-09T20:59:46.256Z,96724.61
2018-09-09T21:02:15.102Z,96719.27
2018-09-09T21:04:43.802Z,96723.63
2018-09-09T21:07:12.634Z,96718.64
2018-09-09T21:09:41.262Z,96719.47
2018-09-09T21:12:10.096Z,96721.28
2018-09-09T21:14:38.940Z,96725.97
2018-09-09T21:17:07.560Z,96722.07
2018-09-09T21:19:36.100Z,96723.68
2018-09-09T21:22:04.797Z,96724.45
2018-09-09T21:24:33.500Z,96722.92
2018-09-09T21:27:02.177Z,96725.59
2018-09-09T21:29:30.980Z,96725.02
2018-09-09T21:32:00.625Z,96724.72
2018-09-09T21:34:30.271Z,96727.55
2018-09-09T21:36:59.196Z,96725.27
2018-09-09T21:39:28.464Z,96720.55
2018-09-09T21:41:57.371Z,96719.42
2018-09-09T21:44:26.242Z,96718.63
2018-09-09T21:46:55.120Z,96716.36
2018-09-09T21:49:23.727Z,96722.53
2018-09-09T21:51:52.504Z,96718.58
2018-09-09T21:54:21.193Z,96727.29
2018-09-09T21:56:49.867Z,96719.14
2018-09-09T21:59:18.512Z,96722.05
2018-09-09T22:01:52.711Z,96716.08
2018-09-09T22:04:21.432Z,96714.63
2018-09-09T22:06:50.196Z,96720.37
2018-09-09T22:09:18.824Z,96717.77
2018-09-09T22:11:47.352Z,96719.84
2018-09-09T22:17:07.280Z,96723.20
2018-09-09T22:22:38.851Z,96722.97
2018-09-09T22:25:07.419Z,96719.59
2018-09-09T22:27:36.456Z,96718.83
2018-09-09T22:30:06.883Z,96719.44
2018-09-09T22:32:35.590Z,96715.23
2018-09-09T22:35:04.570Z,96716.38
2018-09-09T22:37:33.979Z,96714.38
2018-09-09T22:40:02.632Z,96711.41
2018-09-09T22:42:31.327Z,96719.80
2018-09-09T22:45:00.007Z,96718.03
2018-09-09T22:47:28.703Z,96727.98
2018-09-09T22:49:57.329Z,96725.83
2018-09-09T22:52:26.080Z,96727.65
2018-09-09T22:54:54.944Z,96725.97
2018-09-09T22:57:23.661Z,96736.45
2018-09-09T22:59:52.198Z,96732.72
2018-09-09T23:02:20.747Z,96735.53
2018-09-09T23:04:49.923Z,96736.14
2018-09-09T23:07:18.562Z,96730.03
2018-09-09T23:09:47.261Z,96729.28
2018-09-09T23:12:15.984Z,96730.58
2018-09-09T23:14:44.585Z,96728.89
2018-09-09T23:17:13.531Z,96736.28
2018-09-09T23:19:42.190Z,96731.77
2018-09-09T23:22:11.082Z,96732.12
2018-09-09T23:24:39.741Z,96733.02
2018-09-09T23:27:08.487Z,96736.82
2018-09-09T23:29:37.797Z,96737.91
2018-09-09T23:32:06.827Z,96737.11
2018-09-09T23:34:35.523Z,96734.55
2018-09-09T23:37:04.247Z,96733.00
2018-09-09T23:39:34.169Z,96731.97
2018-09-09T23:42:03.018Z,96730.06
2018-09-09T23:44:31.725Z,96727.55
2018-09-09T23:47:00.554Z,96727.03
2018-09-09T23:49:29.288Z,96735.11
2018-09-09T23:51:58.173Z,96734.15
2018-09-09T23:54:26.920Z,96734.55
2018-09-09T23:56:56.613Z,96739.47
2018-09-09T23:59:26.383Z,96736.13
